Time;durP1;ratioP1;P1;durP2;ratioP2;P2;SDS_P1;SDS_P2;PMS_P1;PMS_P2;Temp;Humidity;BMP_temperature;BMP_pressure;BME280_temperature;BME280_humidity;BME280_pressure;Samples;Min_cycle;Max_cycle;Signal;HPM_P1;HPM_P2
2022/05/02 00:02:23;;;;;;;10.77;6.70;;;;;;;;;;5014860;28;20037;-76
2022/05/02 00:04:49;;;;;;;13.05;7.95;;;;;;;;;;4994520;28;20390;-76
2022/05/02 00:07:15;;;;;;;10.95;7.22;;;;;;;;;;5011565;28;20055;-75
2022/05/02 00:09:41;;;;;;;10.65;7.85;;;;;;;;;;5014649;28;20029;-76
2022/05/02 00:12:07;;;;;;;10.88;6.65;;;;;;;;;;5016242;28;20029;-76
2022/05/02 00:14:33;;;;;;;9.80;6.25;;;;;;;;;;5014697;28;20483;-75
2022/05/02 00:16:59;;;;;;;10.60;6.75;;;;;;;;;;5015670;28;20021;-75
2022/05/02 00:19:25;;;;;;;9.23;7.18;;;;;;;;;;5014648;28;20045;-76
2022/05/02 00:21:51;;;;;;;9.63;6.68;;;;;;;;;;5014566;28;20025;-75
2022/05/02 00:24:17;;;;;;;13.93;7.82;;;;;;;;;;5011270;28;20068;-76
2022/05/02 00:26:44;;;;;;;10.80;6.75;;;;;;;;;;5011100;28;20045;-76
2022/05/02 00:29:10;;;;;;;9.88;6.47;;;;;;;;;;4996344;28;20018;-75
2022/05/02 00:31:36;;;;;;;11.65;6.47;;;;;;;;;;5011091;28;20078;-75
2022/05/02 00:34:02;;;;;;;10.27;6.78;;;;;;;;;;5010817;28;20042;-75
2022/05/02 00:36:28;;;;;;;16.17;7.43;;;;;;;;;;5010951;28;20033;-75
2022/05/02 00:38:54;;;;;;;9.55;6.80;;;;;;;;;;4995655;28;20074;-75
2022/05/02 00:41:20;;;;;;;11.10;6.30;;;;;;;;;;5010964;28;20026;-75
2022/05/02 00:43:47;;;;;;;10.18;7.22;;;;;;;;;;5010798;28;20121;-75
2022/05/02 00:46:19;;;;;;;11.77;6.85;;;;;;;;;;4996030;28;20021;-75
2022/05/02 00:48:46;;;;;;;10.77;6.13;;;;;;;;;;4995720;28;20034;-75
2022/05/02 00:51:13;;;;;;;10.68;7.00;;;;;;;;;;4995725;28;20101;-76
2022/05/02 00:53:39;;;;;;;11.85;6.93;;;;;;;;;;4995722;28;20026;-75
2022/05/02 00:56:09;;;;;;;10.82;6.50;;;;;;;;;;5010625;28;20022;-75
2022/05/02 00:58:35;;;;;;;9.90;6.82;;;;;;;;;;5010335;28;20073;-76
2022/05/02 01:01:02;;;;;;;10.05;6.50;;;;;;;;;;5010575;28;20183;-76
2022/05/02 01:03:28;;;;;;;10.10;6.85;;;;;;;;;;5010524;28;20041;-75
2022/05/02 01:08:39;;;;;;;10.23;6.95;;;;;;;;;;4995053;28;20038;-76
2022/05/02 01:11:05;;;;;;;11.73;6.72;;;;;;;;;;4995409;28;20022;-75
2022/05/02 01:13:32;;;;;;;11.93;8.27;;;;;;;;;;4995304;28;20061;-75
2022/05/02 01:15:59;;;;;;;9.05;6.53;;;;;;;;;;5010108;28;20026;-75
2022/05/02 01:18:25;;;;;;;8.57;6.00;;;;;;;;;;5009299;28;20046;-77
2022/05/02 01:20:51;;;;;;;8.65;5.85;;;;;;;;;;5010248;28;20370;-75
2022/05/02 01:23:17;;;;;;;8.88;5.80;;;;;;;;;;5010125;28;20022;-76
2022/05/02 01:25:44;;;;;;;10.00;5.22;;;;;;;;;;5010069;28;20169;-76
2022/05/02 01:28:11;;;;;;;9.00;5.72;;;;;;;;;;5010078;28;20088;-76
2022/05/02 01:30:37;;;;;;;8.63;5.75;;;;;;;;;;5009987;28;20050;-75
2022/05/02 01:33:03;;;;;;;12.23;6.93;;;;;;;;;;5010019;28;20401;-75
2022/05/02 01:35:29;;;;;;;10.60;6.10;;;;;;;;;;4994957;28;20019;-75
2022/05/02 01:37:55;;;;;;;10.77;5.45;;;;;;;;;;4994778;28;20136;-76
2022/05/02 01:40:21;;;;;;;9.88;5.95;;;;;;;;;;5009891;28;20019;-76
2022/05/02 01:42:47;;;;;;;9.68;5.97;;;;;;;;;;4994841;28;20481;-76
2022/05/02 01:45:13;;;;;;;10.93;6.80;;;;;;;;;;4994696;28;20430;-76
2022/05/02 01:47:39;;;;;;;10.43;5.90;;;;;;;;;;5009771;28;20022;-76
2022/05/02 01:50:05;;;;;;;14.30;6.20;;;;;;;;;;4994665;28;20073;-76
2022/05/02 01:52:31;;;;;;;10.55;6.22;;;;;;;;;;5009613;28;20034;-76
2022/05/02 01:54:57;;;;;;;8.50;6.07;;;;;;;;;;5009579;28;20122;-76
2022/05/02 01:57:23;;;;;;;9.73;6.75;;;;;;;;;;5009418;28;20417;-76
2022/05/02 01:59:49;;;;;;;8.88;5.93;;;;;;;;;;4994376;28;20524;-75
2022/05/02 02:02:16;;;;;;;9.27;6.95;;;;;;;;;;4994394;28;20085;-76
2022/05/02 02:07:26;;;;;;;10.00;7.35;;;;;;;;;;4994345;28;20057;-76
2022/05/02 02:09:52;;;;;;;8.98;6.18;;;;;;;;;;5009214;28;20022;-75
2022/05/02 02:12:18;;;;;;;9.13;5.57;;;;;;;;;;4994292;28;20022;-75
2022/05/02 02:14:44;;;;;;;9.35;5.85;;;;;;;;;;5009183;28;20038;-74
2022/05/02 02:17:10;;;;;;;8.90;5.72;;;;;;;;;;4994025;28;20088;-75
2022/05/02 02:19:36;;;;;;;8.68;5.40;;;;;;;;;;4994073;28;20019;-76
2022/05/02 02:22:18;;;;;;;10.13;6.45;;;;;;;;;;5009134;28;20026;-75
2022/05/02 02:24:47;;;;;;;9.20;5.47;;;;;;;;;;4994202;28;20061;-77
2022/05/02 02:27:22;;;;;;;15.18;8.88;;;;;;;;;;4993933;28;20026;-74
2022/05/02 02:29:48;;;;;;;8.35;6.10;;;;;;;;;;4993263;28;20026;-75
2022/05/02 02:32:14;;;;;;;9.07;6.40;;;;;;;;;;4993447;28;20022;-75
2022/05/02 02:34:49;;;;;;;8.85;6.10;;;;;;;;;;4993493;28;20022;-77
2022/05/02 02:37:16;;;;;;;8.15;5.18;;;;;;;;;;4993273;28;20056;-76
2022/05/02 02:39:42;;;;;;;10.13;5.85;;;;;;;;;;4993813;28;20032;-75
2022/05/02 02:42:08;;;;;;;7.38;5.82;;;;;;;;;;4993955;28;20887;-74
2022/05/02 02:44:35;;;;;;;9.50;5.93;;;;;;;;;;5008585;28;20022;-75
2022/05/02 02:47:01;;;;;;;8.23;5.97;;;;;;;;;;4993106;28;20090;-76
2022/05/02 02:49:27;;;;;;;8.80;6.10;;;;;;;;;;4993183;28;20046;-76
2022/05/02 02:51:53;;;;;;;7.93;5.38;;;;;;;;;;5008497;28;20030;-75
2022/05/02 02:54:19;;;;;;;7.70;5.50;;;;;;;;;;4993494;28;20034;-76
2022/05/02 02:56:45;;;;;;;7.30;5.28;;;;;;;;;;5008434;28;20037;-76
2022/05/02 02:59:11;;;;;;;11.82;7.30;;;;;;;;;;4993235;28;20065;-75
2022/05/02 03:01:37;;;;;;;9.55;5.82;;;;;;;;;;4993441;28;20125;-76
2022/05/02 03:06:01;;;;;;;8.10;5.80;;;;;;;;;;5008338;28;20030;-76
2022/05/02 03:06:50;;;;;;;7.50;5.22;;;;;;;;;;4993132;28;20046;-76
2022/05/02 03:09:16;;;;;;;7.35;5.07;;;;;;;;;;4993518;28;20054;-76
2022/05/02 03:11:42;;;;;;;6.82;4.65;;;;;;;;;;5008218;28;20018;-77
2022/05/02 03:14:08;;;;;;;6.88;4.57;;;;;;;;;;5007978;28;20432;-76
2022/05/02 03:16:34;;;;;;;6.78;4.55;;;;;;;;;;4993045;28;20026;-76
2022/05/02 03:19:00;;;;;;;6.43;5.03;;;;;;;;;;5007978;28;20034;-76
2022/05/02 03:21:26;;;;;;;8.00;4.68;;;;;;;;;;4992994;28;20145;-76
2022/05/02 03:23:52;;;;;;;7.88;4.90;;;;;;;;;;4992680;28;20019;-76
2022/05/02 03:26:18;;;;;;;7.05;3.95;;;;;;;;;;4993250;28;20097;-79
2022/05/02 03:28:44;;;;;;;6.63;4.47;;;;;;;;;;5012164;28;20018;-78
2022/05/02 03:31:10;;;;;;;9.70;5.00;;;;;;;;;;5012356;28;20026;-79
2022/05/02 03:33:36;;;;;;;6.80;4.45;;;;;;;;;;5012428;28;20021;-79
2022/05/02 03:36:03;;;;;;;6.28;3.92;;;;;;;;;;5011096;28;20480;-78
2022/05/02 03:38:29;;;;;;;6.90;4.47;;;;;;;;;;5011986;28;20034;-78
2022/05/02 03:40:55;;;;;;;7.57;5.28;;;;;;;;;;5011565;28;20026;-78
2022/05/02 03:43:21;;;;;;;11.07;4.90;;;;;;;;;;5010959;28;20052;-78
2022/05/02 03:45:47;;;;;;;7.90;5.20;;;;;;;;;;5011837;28;20097;-78
2022/05/02 03:48:13;;;;;;;8.75;4.55;;;;;;;;;;5012392;28;20026;-78
2022/05/02 03:50:39;;;;;;;6.47;4.32;;;;;;;;;;5011908;28;20026;-77
2022/05/02 03:53:08;;;;;;;10.27;5.82;;;;;;;;;;5012183;28;20030;-78
2022/05/02 03:55:34;;;;;;;9.63;5.30;;;;;;;;;;5010800;28;20029;-79
2022/05/02 03:58:02;;;;;;;12.10;5.22;;;;;;;;;;5010567;28;20152;-78
2022/05/02 04:00:28;;;;;;;8.00;5.05;;;;;;;;;;5012090;28;20022;-78
2022/05/02 04:02:54;;;;;;;9.38;6.50;;;;;;;;;;5010311;28;20022;-78
2022/05/02 04:05:20;;;;;;;9.55;6.10;;;;;;;;;;5012169;28;20030;-78
2022/05/02 04:07:46;;;;;;;8.98;6.22;;;;;;;;;;5010542;28;20042;-78
2022/05/02 04:10:12;;;;;;;11.70;6.70;;;;;;;;;;5012183;28;20104;-78
2022/05/02 04:12:39;;;;;;;10.70;6.90;;;;;;;;;;5011593;28;20022;-78
2022/05/02 04:15:06;;;;;;;9.27;6.65;;;;;;;;;;5011675;28;20033;-78
2022/05/02 04:17:32;;;;;;;8.70;5.40;;;;;;;;;;5011771;28;20038;-77
2022/05/02 04:19:58;;;;;;;10.88;6.68;;;;;;;;;;5011484;28;20021;-79
2022/05/02 04:22:24;;;;;;;9.40;5.68;;;;;;;;;;5012091;28;20026;-79
2022/05/02 04:24:50;;;;;;;8.57;5.47;;;;;;;;;;5011723;28;20026;-78
2022/05/02 04:27:16;;;;;;;7.05;4.70;;;;;;;;;;5011778;28;20034;-79
2022/05/02 04:29:42;;;;;;;10.70;4.72;;;;;;;;;;5011485;28;20022;-78
2022/05/02 04:32:08;;;;;;;6.60;4.78;;;;;;;;;;4994035;28;20045;-78
2022/05/02 04:34:34;;;;;;;6.82;4.85;;;;;;;;;;4995560;28;20022;-78
2022/05/02 04:37:00;;;;;;;7.43;4.75;;;;;;;;;;4991371;28;20077;-77
2022/05/02 04:39:26;;;;;;;7.55;4.65;;;;;;;;;;4992281;28;20050;-80
2022/05/02 04:41:52;;;;;;;12.23;6.47;;;;;;;;;;5007339;28;20026;-77
2022/05/02 04:44:18;;;;;;;10.38;6.05;;;;;;;;;;4992140;28;20026;-78
2022/05/02 04:46:44;;;;;;;16.30;7.38;;;;;;;;;;5007062;28;20026;-78
2022/05/02 04:49:10;;;;;;;15.02;7.72;;;;;;;;;;4992350;28;20718;-78
2022/05/02 04:51:36;;;;;;;7.85;6.10;;;;;;;;;;5008469;28;20018;-78
2022/05/02 04:54:02;;;;;;;8.30;5.18;;;;;;;;;;4995401;28;20033;-77
2022/05/02 04:56:28;;;;;;;11.60;5.05;;;;;;;;;;4995668;28;20050;-85
2022/05/02 04:58:54;;;;;;;8.30;5.47;;;;;;;;;;4995763;28;20136;-85
2022/05/02 05:01:21;;;;;;;11.52;5.90;;;;;;;;;;4995867;28;20035;-83
2022/05/02 05:03:47;;;;;;;9.55;5.07;;;;;;;;;;4996138;28;20018;-84
2022/05/02 05:06:13;;;;;;;10.60;5.57;;;;;;;;;;5010590;28;20046;-86
2022/05/02 05:08:40;;;;;;;7.03;5.30;;;;;;;;;;5010274;28;20030;-86
2022/05/02 05:11:13;;;;;;;9.73;5.50;;;;;;;;;;5010886;28;20026;-86
2022/05/02 05:13:44;;;;;;;8.60;5.32;;;;;;;;;;5011638;28;20026;-82
2022/05/02 05:16:24;;;;;;;10.63;5.22;;;;;;;;;;5011443;28;20030;-84
2022/05/02 05:19:21;;;;;;;6.72;4.35;;;;;;;;;;4996014;28;20486;-85
2022/05/02 05:22:03;;;;;;;10.50;5.03;;;;;;;;;;4996221;28;20542;-84
2022/05/02 05:24:41;;;;;;;8.82;5.28;;;;;;;;;;4996085;28;20030;-83
2022/05/02 05:27:08;;;;;;;9.02;5.82;;;;;;;;;;5011167;28;20026;-82
2022/05/02 05:29:37;;;;;;;8.93;6.03;;;;;;;;;;4995953;28;20022;-83
2022/05/02 05:32:09;;;;;;;9.93;6.78;;;;;;;;;;5011004;28;20026;-84
2022/05/02 05:34:38;;;;;;;10.55;6.38;;;;;;;;;;4995892;28;20385;-83
2022/05/02 05:37:43;;;;;;;11.88;5.50;;;;;;;;;;4995731;28;20026;-84
2022/05/02 05:40:09;;;;;;;;;;;;;;;;;;4974660;28;20125;-83
2022/05/02 05:42:55;;;;;;;9.02;6.72;;;;;;;;;;4965220;28;20368;-85
2022/05/02 05:45:39;;;;;;;9.50;6.82;;;;;;;;;;4987819;28;20132;-85
2022/05/02 05:48:17;;;;;;;10.27;6.50;;;;;;;;;;4995841;28;20019;-84
2022/05/02 05:50:49;;;;;;;8.80;6.55;;;;;;;;;;4995984;28;20109;-85
2022/05/02 05:53:25;;;;;;;13.20;8.07;;;;;;;;;;4995709;28;20025;-83
2022/05/02 05:55:54;;;;;;;11.18;5.78;;;;;;;;;;4996082;28;20077;-84
2022/05/02 05:58:33;;;;;;;8.70;5.68;;;;;;;;;;4996658;28;20117;-83
2022/05/02 06:01:11;;;;;;;8.40;5.57;;;;;;;;;;5011022;28;20026;-84
2022/05/02 06:03:41;;;;;;;9.50;5.20;;;;;;;;;;4995161;28;20489;-81
2022/05/02 06:06:08;;;;;;;7.75;5.05;;;;;;;;;;4995589;28;20129;-84
2022/05/02 06:08:34;;;;;;;9.68;5.38;;;;;;;;;;4995346;28;20077;-84
2022/05/02 06:11:01;;;;;;;8.93;5.65;;;;;;;;;;4994974;28;20026;-85
2022/05/02 06:13:28;;;;;;;8.50;5.43;;;;;;;;;;4995285;28;20028;-83
2022/05/02 06:18:42;;;;;;;9.65;5.15;;;;;;;;;;4994925;28;20616;-85
2022/05/02 06:21:09;;;;;;;10.90;6.30;;;;;;;;;;5011022;28;20128;-86
2022/05/02 06:23:43;;;;;;;9.23;6.07;;;;;;;;;;5014827;28;20014;-83
2022/05/02 06:26:10;;;;;;;9.98;5.60;;;;;;;;;;4995549;28;20026;-85
2022/05/02 06:28:46;;;;;;;11.00;5.28;;;;;;;;;;4997353;28;20038;-88
2022/05/02 06:31:26;;;;;;;10.23;6.07;;;;;;;;;;4996172;28;20018;-81
2022/05/02 06:33:53;;;;;;;8.65;5.20;;;;;;;;;;4994411;28;20026;-82
2022/05/02 06:36:31;;;;;;;8.38;5.30;;;;;;;;;;5009722;28;20027;-81
2022/05/02 06:39:12;;;;;;;7.72;5.38;;;;;;;;;;5009420;28;20052;-80
2022/05/02 06:41:56;;;;;;;8.43;5.22;;;;;;;;;;4994207;28;20029;-81
2022/05/02 06:44:22;;;;;;;12.43;5.97;;;;;;;;;;4994250;28;20061;-81
2022/05/02 06:47:27;;;;;;;7.38;4.32;;;;;;;;;;5010225;28;20030;-84
2022/05/02 06:49:56;;;;;;;7.82;4.78;;;;;;;;;;4974837;28;20038;-82
2022/05/02 06:52:30;;;;;;;12.07;5.68;;;;;;;;;;4972856;28;20102;-82
2022/05/02 06:55:02;;;;;;;7.45;4.70;;;;;;;;;;4984620;28;20039;-83
2022/05/02 06:57:28;;;;;;;8.35;5.97;;;;;;;;;;4994395;28;20085;-83
2022/05/02 07:00:03;;;;;;;6.65;5.63;;;;;;;;;;4994159;28;20022;-82
2022/05/02 07:02:48;;;;;;;9.90;5.90;;;;;;;;;;4994414;28;20485;-82
2022/05/02 07:05:28;;;;;;;9.05;5.25;;;;;;;;;;5009425;28;20470;-82
2022/05/02 07:07:54;;;;;;;7.60;5.32;;;;;;;;;;4993900;28;20034;-81
2022/05/02 07:10:25;;;;;;;7.22;4.80;;;;;;;;;;4993945;28;20033;-82
2022/05/02 07:12:59;;;;;;;6.90;4.80;;;;;;;;;;4993950;28;20114;-82
2022/05/02 07:15:31;;;;;;;9.57;5.63;;;;;;;;;;4993316;28;20063;-82
2022/05/02 07:17:57;;;;;;;8.63;6.25;;;;;;;;;;4994076;28;20074;-82
2022/05/02 07:20:42;;;;;;;6.93;5.43;;;;;;;;;;4993719;28;20085;-82
2022/05/02 07:23:27;;;;;;;7.63;4.70;;;;;;;;;;5009127;28;20026;-82
2022/05/02 07:26:14;;;;;;;8.80;4.68;;;;;;;;;;5008902;28;20118;-81
2022/05/02 07:28:50;;;;;;;7.30;4.53;;;;;;;;;;4993497;28;20022;-81
2022/05/02 07:31:19;;;;;;;8.18;5.60;;;;;;;;;;4992298;28;20478;-81
2022/05/02 07:33:46;;;;;;;7.88;5.40;;;;;;;;;;4993428;28;20033;-83
2022/05/02 07:36:15;;;;;;;9.85;5.40;;;;;;;;;;4993402;28;20092;-82
2022/05/02 07:38:44;;;;;;;6.40;4.95;;;;;;;;;;4992172;28;20045;-83
2022/05/02 07:41:24;;;;;;;6.15;4.72;;;;;;;;;;4992301;28;20050;-81
2022/05/02 07:43:51;;;;;;;8.48;5.47;;;;;;;;;;4993545;28;20029;-81
2022/05/02 07:46:20;;;;;;;8.25;5.35;;;;;;;;;;4993546;28;20106;-81
2022/05/02 07:48:46;;;;;;;8.68;5.70;;;;;;;;;;4992323;28;20027;-84
2022/05/02 07:51:13;;;;;;;7.30;5.55;;;;;;;;;;4993296;28;20105;-83
2022/05/02 07:53:44;;;;;;;6.53;5.15;;;;;;;;;;4992970;28;20077;-83
2022/05/02 07:56:10;;;;;;;9.43;5.93;;;;;;;;;;4995671;28;20054;-83
2022/05/02 07:58:44;;;;;;;8.23;5.00;;;;;;;;;;4992922;28;20485;-81
2022/05/02 08:01:10;;;;;;;8.75;4.93;;;;;;;;;;4992861;28;20374;-80
2022/05/02 08:03:36;;;;;;;8.80;5.43;;;;;;;;;;4992935;28;20469;-79
2022/05/02 08:06:11;;;;;;;7.22;5.00;;;;;;;;;;4991667;28;20046;-80
2022/05/02 08:08:45;;;;;;;6.47;4.57;;;;;;;;;;4993017;28;20093;-80
2022/05/02 08:11:16;;;;;;;6.35;4.35;;;;;;;;;;4991974;28;20072;-80
2022/05/02 08:14:01;;;;;;;9.45;5.00;;;;;;;;;;4993107;28;20033;-79
2022/05/02 08:16:32;;;;;;;10.02;4.93;;;;;;;;;;4991664;28;20094;-80
2022/05/02 08:19:21;;;;;;;6.72;4.40;;;;;;;;;;4991084;28;20031;-79
2022/05/02 08:27:15;;;;;;;7.93;4.72;;;;;;;;;;4982256;28;20041;-79
2022/05/02 08:27:39;;;;;;;5.55;4.45;;;;;;;;;;4995831;28;20112;-81
2022/05/02 08:30:05;;;;;;;6.70;4.25;;;;;;;;;;4996521;28;20031;-80
2022/05/02 08:32:34;;;;;;;6.25;3.90;;;;;;;;;;4995919;28;20033;-81
2022/05/02 08:35:08;;;;;;;5.68;4.07;;;;;;;;;;4996628;28;20030;-81
2022/05/02 08:37:40;;;;;;;7.30;4.00;;;;;;;;;;4996314;28;20560;-81
2022/05/02 08:40:13;;;;;;;5.78;3.65;;;;;;;;;;4996667;28;20030;-81
2022/05/02 08:42:50;;;;;;;7.07;3.50;;;;;;;;;;4995520;28;20034;-82
2022/05/02 08:45:18;;;;;;;6.32;4.00;;;;;;;;;;4996500;28;20022;-82
2022/05/02 08:47:54;;;;;;;7.53;3.78;;;;;;;;;;4996685;28;20370;-81
2022/05/02 08:50:23;;;;;;;6.20;3.50;;;;;;;;;;4996531;28;20034;-81
2022/05/02 08:53:07;;;;;;;5.72;3.25;;;;;;;;;;4996683;28;20486;-81
2022/05/02 08:55:48;;;;;;;5.63;4.05;;;;;;;;;;4995427;28;20030;-81
2022/05/02 08:58:33;;;;;;;5.75;3.50;;;;;;;;;;4996079;28;20031;-82
2022/05/02 09:01:18;;;;;;;5.78;3.33;;;;;;;;;;4997093;28;20405;-81
2022/05/02 09:04:02;;;;;;;6.00;3.38;;;;;;;;;;5007101;28;20026;-84
2022/05/02 09:06:31;;;;;;;4.80;3.35;;;;;;;;;;5023043;28;20053;-83
2022/05/02 09:09:15;;;;;;;6.50;3.63;;;;;;;;;;5004619;28;20045;-83
2022/05/02 09:11:54;;;;;;;5.10;3.55;;;;;;;;;;5026619;28;20101;-82
2022/05/02 09:14:39;;;;;;;5.72;3.67;;;;;;;;;;5011967;28;20508;-85
2022/05/02 09:17:24;;;;;;;4.53;3.22;;;;;;;;;;5014703;28;20045;-82
2022/05/02 09:20:02;;;;;;;4.53;3.38;;;;;;;;;;5010077;28;20393;-85
2022/05/02 09:22:47;;;;;;;4.38;3.30;;;;;;;;;;5025209;28;20049;-84
2022/05/02 09:25:18;;;;;;;6.47;4.07;;;;;;;;;;5011498;28;20426;-84
2022/05/02 09:27:47;;;;;;;7.00;3.50;;;;;;;;;;5005115;28;20105;-83
2022/05/02 09:30:38;;;;;;;5.18;3.25;;;;;;;;;;5011548;28;20507;-83
2022/05/02 09:33:04;;;;;;;6.18;3.15;;;;;;;;;;5012396;28;20429;-81
2022/05/02 09:35:31;;;;;;;5.50;3.78;;;;;;;;;;5008778;28;20038;-80
2022/05/02 09:37:58;;;;;;;5.60;3.72;;;;;;;;;;5007510;28;20076;-82
2022/05/02 09:40:43;;;;;;;4.68;3.53;;;;;;;;;;5002146;28;20014;-82
2022/05/02 09:43:23;;;;;;;4.78;3.35;;;;;;;;;;5007229;28;20022;-76
2022/05/02 09:51:48;;;;;;;3.90;2.85;;;;;;;;;;5015461;28;20092;-85
2022/05/02 09:57:21;;;;;;;6.85;3.42;;;;;;;;;;4995649;28;20100;-82
2022/05/02 09:59:49;;;;;;;6.18;4.05;;;;;;;;;;4995361;28;20019;-79
2022/05/02 10:02:24;;;;;;;4.95;3.58;;;;;;;;;;5015221;28;20026;-85
2022/05/02 10:05:07;;;;;;;7.03;3.50;;;;;;;;;;5012453;28;20045;-81
2022/05/02 10:07:56;;;;;;;5.32;3.60;;;;;;;;;;5013635;28;20035;-81
2022/05/02 10:10:29;;;;;;;7.55;3.50;;;;;;;;;;4997285;28;20077;-77
2022/05/02 10:13:01;;;;;;;5.13;3.90;;;;;;;;;;5008511;28;20054;-77
2022/05/02 10:15:27;;;;;;;7.30;4.03;;;;;;;;;;5012513;28;20022;-81
2022/05/02 10:18:05;;;;;;;6.65;3.70;;;;;;;;;;5011326;28;20034;-82
2022/05/02 10:20:50;;;;;;;4.50;3.40;;;;;;;;;;5013628;28;20054;-80
2022/05/02 10:23:16;;;;;;;5.88;3.55;;;;;;;;;;5013918;28;20037;-81
2022/05/02 10:25:44;;;;;;;5.60;4.70;;;;;;;;;;5014435;28;20018;-81
2022/05/02 10:28:10;;;;;;;5.00;3.40;;;;;;;;;;5013106;28;20022;-80
2022/05/02 10:30:57;;;;;;;5.35;3.17;;;;;;;;;;5014341;28;20022;-79
2022/05/02 10:33:31;;;;;;;6.95;3.88;;;;;;;;;;5004149;28;20038;-80
2022/05/02 10:35:59;;;;;;;4.30;3.00;;;;;;;;;;5008884;28;20366;-79
2022/05/02 10:38:30;;;;;;;5.13;3.22;;;;;;;;;;5011017;28;20033;-78
2022/05/02 10:41:02;;;;;;;4.75;3.25;;;;;;;;;;5013250;28;20029;-79
2022/05/02 10:43:30;;;;;;;4.63;3.17;;;;;;;;;;5010933;28;20018;-80
2022/05/02 10:45:58;;;;;;;4.72;3.63;;;;;;;;;;5014201;28;20030;-81
2022/05/02 10:48:31;;;;;;;4.65;2.75;;;;;;;;;;5015890;28;20024;-82
2022/05/02 10:51:04;;;;;;;4.70;3.45;;;;;;;;;;5014955;28;20029;-80
2022/05/02 10:53:50;;;;;;;6.32;3.58;;;;;;;;;;5003380;28;20025;-78
2022/05/02 10:56:16;;;;;;;3.60;2.92;;;;;;;;;;5009463;28;20018;-82
2022/05/02 10:58:44;;;;;;;7.05;3.15;;;;;;;;;;5011078;28;20484;-77
2022/05/02 11:01:45;;;;;;;3.75;3.10;;;;;;;;;;4995122;28;20039;-78
2022/05/02 11:04:30;;;;;;;5.13;2.90;;;;;;;;;;5007447;28;20117;-80
2022/05/02 11:07:11;;;;;;;4.43;3.20;;;;;;;;;;5009938;28;20057;-79
2022/05/02 11:09:39;;;;;;;5.03;3.17;;;;;;;;;;5009816;28;20033;-79
2022/05/02 11:12:07;;;;;;;4.03;2.85;;;;;;;;;;5008887;28;20018;-81
2022/05/02 11:14:51;;;;;;;4.65;3.10;;;;;;;;;;4995223;28;20022;-81
2022/05/02 11:17:38;;;;;;;4.53;3.35;;;;;;;;;;4993979;28;20073;-79
2022/05/02 11:23:17;;;;;;;4.00;3.03;;;;;;;;;;4992727;28;20038;-82
2022/05/02 11:26:09;;;;;;;4.22;3.03;;;;;;;;;;4995123;28;20084;-84
2022/05/02 11:28:35;;;;;;;5.45;3.38;;;;;;;;;;4977152;28;20030;-83
2022/05/02 11:31:20;;;;;;;5.72;3.80;;;;;;;;;;5013255;28;20030;-83
2022/05/02 11:33:57;;;;;;;5.60;3.50;;;;;;;;;;4996668;28;20040;-85
2022/05/02 11:36:26;;;;;;;5.35;3.30;;;;;;;;;;4999425;28;20050;-83
2022/05/02 11:38:58;;;;;;;6.20;3.03;;;;;;;;;;4996233;28;20456;-82
2022/05/02 11:41:24;;;;;;;6.75;3.40;;;;;;;;;;4999579;28;20018;-85
2022/05/02 11:44:03;;;;;;;4.57;3.03;;;;;;;;;;4995817;28;20048;-85
2022/05/02 11:46:29;;;;;;;5.70;3.22;;;;;;;;;;5006465;28;20477;-79
2022/05/02 11:48:58;;;;;;;5.53;3.53;;;;;;;;;;5011502;28;20477;-79
2022/05/02 11:51:28;;;;;;;4.85;3.13;;;;;;;;;;5009315;28;20041;-78
2022/05/02 11:53:55;;;;;;;8.93;5.00;;;;;;;;;;5009867;28;20026;-77
2022/05/02 11:56:24;;;;;;;10.93;4.30;;;;;;;;;;5027122;28;20029;-79
2022/05/02 11:58:54;;;;;;;5.30;3.72;;;;;;;;;;5009217;28;20433;-79
2022/05/02 12:01:26;;;;;;;15.35;9.98;;;;;;;;;;4994635;28;20037;-80
2022/05/02 12:03:54;;;;;;;6.47;4.10;;;;;;;;;;4992399;28;20014;-79
2022/05/02 12:06:31;;;;;;;14.65;9.15;;;;;;;;;;5012741;28;20069;-78
2022/05/02 12:09:03;;;;;;;6.53;3.88;;;;;;;;;;5009403;28;20108;-81
2022/05/02 12:11:29;;;;;;;10.00;3.22;;;;;;;;;;5007477;28;20492;-79
2022/05/02 12:13:56;;;;;;;8.93;5.43;;;;;;;;;;4995633;28;20045;-77
2022/05/02 12:16:22;;;;;;;6.00;3.05;;;;;;;;;;4996101;28;20516;-78
2022/05/02 12:18:48;;;;;;;5.82;3.72;;;;;;;;;;4995199;28;20052;-78
2022/05/02 12:21:35;;;;;;;5.85;3.13;;;;;;;;;;5008817;28;20460;-82
2022/05/02 12:24:03;;;;;;;5.50;2.28;;;;;;;;;;4994821;28;20421;-78
2022/05/02 12:26:29;;;;;;;14.55;9.43;;;;;;;;;;5007326;28;20042;-79
2022/05/02 12:28:58;;;;;;;5.63;3.60;;;;;;;;;;5008130;28;20037;-78
2022/05/02 12:31:24;;;;;;;5.78;3.08;;;;;;;;;;4992696;28;20014;-80
2022/05/02 12:33:55;;;;;;;9.73;3.88;;;;;;;;;;5008285;28;20022;-79
2022/05/02 12:36:24;;;;;;;22.60;12.57;;;;;;;;;;5013063;28;20046;-78
2022/05/02 12:39:00;;;;;;;7.93;4.72;;;;;;;;;;4995790;28;20039;-77
2022/05/02 12:41:29;;;;;;;7.75;4.50;;;;;;;;;;5015473;28;20038;-78
2022/05/02 12:44:00;;;;;;;10.40;6.15;;;;;;;;;;4995975;28;20081;-77
2022/05/02 12:46:33;;;;;;;8.68;4.45;;;;;;;;;;5002970;28;20531;-78
2022/05/02 12:48:59;;;;;;;;;;;;;;;;;;5011768;28;20018;-78
2022/05/02 12:51:28;;;;;;;5.90;3.35;;;;;;;;;;4994780;28;19909;-80
2022/05/02 12:54:14;;;;;;;5.88;3.28;;;;;;;;;;5008017;28;20461;-77
2022/05/02 12:56:47;;;;;;;6.68;4.45;;;;;;;;;;5009579;28;20026;-79
2022/05/02 13:02:00;;;;;;;10.20;4.53;;;;;;;;;;4994387;28;20050;-80
2022/05/02 13:04:28;;;;;;;4.82;2.80;;;;;;;;;;5009444;28;20100;-75
2022/05/02 13:06:58;;;;;;;6.90;2.92;;;;;;;;;;4999393;28;20050;-78
2022/05/02 13:09:35;;;;;;;6.97;4.43;;;;;;;;;;4992036;28;20014;-80
2022/05/02 13:12:09;;;;;;;3.88;3.00;;;;;;;;;;4996741;28;20069;-78
2022/05/02 13:14:37;;;;;;;7.10;3.40;;;;;;;;;;5001610;28;20061;-77
2022/05/02 13:17:10;;;;;;;7.22;4.47;;;;;;;;;;5019110;28;20031;-76
2022/05/02 13:19:37;;;;;;;19.38;14.05;;;;;;;;;;5006510;28;20137;-77
2022/05/02 13:22:04;;;;;;;13.98;7.68;;;;;;;;;;5007976;28;20026;-75
2022/05/02 13:24:31;;;;;;;7.35;2.75;;;;;;;;;;5015962;28;20022;-78
2022/05/02 13:26:57;;;;;;;3.42;2.38;;;;;;;;;;5013133;28;20037;-79
2022/05/02 13:29:38;;;;;;;7.18;3.03;;;;;;;;;;5009077;28;20456;-79
2022/05/02 13:32:04;;;;;;;7.53;5.00;;;;;;;;;;5000308;28;20451;-77
2022/05/02 13:34:42;;;;;;;5.97;2.95;;;;;;;;;;4994847;28;20088;-79
2022/05/02 13:37:15;;;;;;;16.70;11.80;;;;;;;;;;5006253;28;20446;-77
2022/05/02 13:39:45;;;;;;;28.27;17.67;;;;;;;;;;5000031;28;20065;-77
2022/05/02 13:42:21;;;;;;;10.43;3.30;;;;;;;;;;5014824;28;20068;-80
2022/05/02 13:44:56;;;;;;;43.10;29.77;;;;;;;;;;5004069;28;20037;-77
2022/05/02 13:47:26;;;;;;;10.00;4.25;;;;;;;;;;5004111;28;20029;-77
2022/05/02 13:49:59;;;;;;;8.43;6.05;;;;;;;;;;5008412;28;20030;-77
2022/05/02 13:52:25;;;;;;;;;;;;;;;;;;4996039;28;20485;-77
2022/05/02 13:54:53;;;;;;;5.55;4.15;;;;;;;;;;5001069;28;19955;-77
2022/05/02 13:57:34;;;;;;;14.77;8.05;;;;;;;;;;5018494;28;20014;-77
2022/05/02 14:00:58;;;;;;;10.77;8.07;;;;;;;;;;4995339;28;20080;-76
2022/05/02 14:03:12;;;;;;;6.13;4.60;;;;;;;;;;5002406;28;20499;-76
2022/05/02 14:08:29;;;;;;;8.68;3.47;;;;;;;;;;5004927;28;20030;-79
2022/05/02 14:10:57;;;;;;;5.70;3.00;;;;;;;;;;5004478;28;20080;-76
2022/05/02 14:13:24;;;;;;;8.88;5.13;;;;;;;;;;5005219;28;20026;-77
2022/05/02 14:15:50;;;;;;;5.53;3.70;;;;;;;;;;5016874;28;20014;-79
2022/05/02 14:18:22;;;;;;;7.32;4.75;;;;;;;;;;5003842;28;20038;-76
2022/05/02 14:20:59;;;;;;;6.65;4.82;;;;;;;;;;5015944;28;21164;-76
2022/05/02 14:23:25;;;;;;;8.63;5.95;;;;;;;;;;4998928;28;20041;-78
2022/05/02 14:25:52;;;;;;;5.32;2.97;;;;;;;;;;4999133;28;20479;-81
2022/05/02 14:28:20;;;;;;;6.18;4.10;;;;;;;;;;5003074;28;20018;-77
2022/05/02 14:30:47;;;;;;;6.53;3.85;;;;;;;;;;5005334;28;20019;-77
2022/05/02 14:33:15;;;;;;;6.60;4.28;;;;;;;;;;5003506;28;20018;-76
2022/05/02 14:35:42;;;;;;;6.75;4.32;;;;;;;;;;5002497;28;20049;-76
2022/05/02 14:38:09;;;;;;;5.93;3.78;;;;;;;;;;5002923;28;20037;-77
2022/05/02 14:40:42;;;;;;;9.40;6.63;;;;;;;;;;4998394;28;20049;-77
2022/05/02 14:43:09;;;;;;;7.32;3.70;;;;;;;;;;5015083;28;20109;-75
2022/05/02 14:45:36;;;;;;;7.15;3.05;;;;;;;;;;5000274;28;20117;-78
2022/05/02 14:48:05;;;;;;;5.68;3.97;;;;;;;;;;5002354;28;20022;-77
2022/05/02 14:50:31;;;;;;;4.13;2.53;;;;;;;;;;5017135;28;20014;-78
2022/05/02 14:52:58;;;;;;;5.78;3.53;;;;;;;;;;5018093;28;20026;-80
2022/05/02 14:55:25;;;;;;;4.43;3.10;;;;;;;;;;5001723;28;20015;-77
2022/05/02 14:57:52;;;;;;;5.03;3.70;;;;;;;;;;5003791;28;20030;-78
2022/05/02 15:00:20;;;;;;;5.38;3.25;;;;;;;;;;5020361;28;20033;-78
2022/05/02 15:02:47;;;;;;;5.22;3.70;;;;;;;;;;4999201;28;20408;-77
2022/05/02 15:05:20;;;;;;;12.65;7.47;;;;;;;;;;5022181;28;22120;-78
2022/05/02 15:07:49;;;;;;;7.10;3.38;;;;;;;;;;5001997;28;20084;-79
2022/05/02 15:10:36;;;;;;;12.93;9.52;;;;;;;;;;5001129;28;20096;-75
2022/05/02 15:13:16;;;;;;;6.85;4.15;;;;;;;;;;4995443;28;20405;-79
2022/05/02 15:15:58;;;;;;;8.23;5.15;;;;;;;;;;5003659;28;20034;-80
2022/05/02 15:18:25;;;;;;;9.88;7.38;;;;;;;;;;5005938;28;20042;-77
2022/05/02 15:20:56;;;;;;;11.20;6.57;;;;;;;;;;5006611;28;20022;-79
2022/05/02 15:23:25;;;;;;;9.98;4.45;;;;;;;;;;5001279;28;20021;-78
2022/05/02 15:25:53;;;;;;;10.88;7.78;;;;;;;;;;4997582;28;21235;-75
2022/05/02 15:36:48;;;;;;;6.60;4.47;;;;;;;;;;5001170;28;20069;-79
2022/05/02 15:39:24;;;;;;;7.90;3.97;;;;;;;;;;5003183;28;20069;-79
2022/05/02 15:41:50;;;;;;;5.63;3.33;;;;;;;;;;4999406;28;20022;-79